Time;durP1;ratioP1;P1;durP2;ratioP2;P2;SDS_P1;SDS_P2;PMS_P1;PMS_P2;Temp;Humidity;BMP_temperature;BMP_pressure;BME280_temperature;BME280_humidity;BME280_pressure;Samples;Min_cycle;Max_cycle;Signal;HPM_P1;HPM_P2
2021/11/30 00:01:32;;;;;;;21.13;12.43;;;;;;;2.33;84.54;100030.50;5060287;28;20205;-73
2021/11/30 00:03:59;;;;;;;21.33;13.70;;;;;;;2.37;84.71;100029.44;5042974;28;20202;-72
2021/11/30 00:06:26;;;;;;;22.97;13.87;;;;;;;2.38;84.70;100028.53;5050680;28;20812;-71
2021/11/30 00:09:08;;;;;;;21.30;14.07;;;;;;;2.41;84.81;100017.91;5040216;28;20233;-72
2021/11/30 00:11:35;;;;;;;25.80;14.67;;;;;;;2.43;85.36;100016.94;5047947;28;20233;-73
2021/11/30 00:14:01;;;;;;;24.33;14.57;;;;;;;2.46;84.74;100025.63;5049287;28;20296;-72
2021/11/30 00:16:28;;;;;;;23.60;14.77;;;;;;;2.48;85.30;100014.13;5060335;28;20201;-73
2021/11/30 00:18:54;;;;;;;23.77;14.50;;;;;;;2.49;85.07;100009.72;5062865;28;20214;-72
2021/11/30 00:21:21;;;;;;;26.07;15.97;;;;;;;2.52;85.41;100015.69;5054262;28;20201;-73
2021/11/30 00:23:47;;;;;;;19.80;13.77;;;;;;;2.54;85.53;100003.34;5062758;28;20200;-73
2021/11/30 00:26:14;;;;;;;22.77;14.50;;;;;;;2.57;84.61;100002.38;5053595;28;20198;-71
2021/11/30 00:28:42;;;;;;;24.47;14.63;;;;;;;2.57;85.21;99997.97;5058823;28;20576;-72
2021/11/30 00:31:08;;;;;;;23.20;14.73;;;;;;;2.59;85.42;99996.13;5062042;28;20236;-73
2021/11/30 00:33:35;;;;;;;23.70;14.27;;;;;;;2.60;84.79;99992.59;5054687;28;20208;-72
2021/11/30 00:36:01;;;;;;;20.47;12.97;;;;;;;2.62;85.46;99985.50;5058298;28;20209;-73
2021/11/30 00:38:28;;;;;;;27.77;15.53;;;;;;;2.68;85.06;99980.00;5056434;28;20208;-73
2021/11/30 00:40:54;;;;;;;27.30;14.50;;;;;;;2.69;84.62;99980.81;5058233;28;20606;-72
2021/11/30 00:43:22;;;;;;;25.67;15.20;;;;;;;2.70;84.53;99967.59;5058823;28;20300;-72
2021/11/30 00:45:57;;;;;;;26.73;15.83;;;;;;;2.72;84.67;99975.44;5050902;28;20213;-72
2021/11/30 00:48:29;;;;;;;25.93;15.30;;;;;;;2.73;84.58;99972.75;5051224;28;20200;-73
2021/11/30 00:50:58;;;;;;;30.93;16.00;;;;;;;2.73;85.12;99967.50;5057621;28;20239;-73
2021/11/30 00:53:25;;;;;;;27.23;14.63;;;;;;;2.75;85.11;99970.91;5053654;28;20220;-73
2021/11/30 00:55:52;;;;;;;29.17;15.33;;;;;;;2.76;84.83;99970.00;5051710;28;20213;-73
2021/11/30 00:58:18;;;;;;;29.27;16.57;;;;;;;2.76;85.61;99972.63;5056018;28;20206;-73
2021/11/30 01:00:45;;;;;;;30.43;15.97;;;;;;;2.81;85.58;99974.22;5048930;28;20217;-73
2021/11/30 01:03:13;;;;;;;33.00;17.50;;;;;;;2.82;85.80;99965.41;5055383;28;20555;-73
2021/11/30 01:05:39;;;;;;;33.57;18.30;;;;;;;2.83;85.02;99962.72;5060140;28;20548;-73
2021/11/30 01:08:06;;;;;;;33.13;18.17;;;;;;;2.85;85.03;99946.88;5066390;28;20232;-72
2021/11/30 01:10:35;;;;;;;34.90;17.30;;;;;;;2.87;85.43;99951.13;5051806;28;20222;-72
2021/11/30 01:13:03;;;;;;;33.23;15.80;;;;;;;2.89;86.14;99938.75;5052055;28;20600;-72
2021/11/30 01:15:29;;;;;;;31.07;15.00;;;;;;;2.91;85.41;99936.06;5047820;28;20202;-73
2021/11/30 01:17:56;;;;;;;36.27;18.20;;;;;;;2.93;85.79;99939.47;5047560;28;20693;-73
2021/11/30 01:20:25;;;;;;;31.07;16.40;;;;;;;2.92;86.31;99936.00;5050400;28;20229;-72
2021/11/30 01:22:53;;;;;;;29.07;15.90;;;;;;;2.95;85.52;99940.28;5050284;28;20202;-72
2021/11/30 01:25:20;;;;;;;28.70;14.97;;;;;;;2.95;86.22;99941.13;5063024;28;20660;-73
2021/11/30 01:27:47;;;;;;;26.83;16.13;;;;;;;2.92;86.71;99938.63;5044767;28;20293;-73
2021/11/30 01:30:15;;;;;;;28.03;13.80;;;;;;;2.94;86.55;99933.31;5051193;28;20241;-73
2021/11/30 01:32:43;;;;;;;24.93;15.53;;;;;;;2.97;86.70;99928.78;5054837;28;20236;-72
2021/11/30 01:35:11;;;;;;;35.43;15.67;;;;;;;2.96;87.36;99934.09;5037936;28;20201;-73
2021/11/30 01:37:40;;;;;;;24.63;12.90;;;;;;;3.00;86.98;99930.41;5051637;28;20202;-73
2021/11/30 01:40:09;;;;;;;25.00;14.03;;;;;;;3.03;86.83;99911.88;5046148;28;20656;-73
2021/11/30 01:42:40;;;;;;;23.90;14.00;;;;;;;3.07;86.85;99908.16;5046262;28;20230;-70
2021/11/30 01:45:09;;;;;;;25.27;12.80;;;;;;;3.08;86.68;99900.22;5050852;28;20201;-71
2021/11/30 01:50:16;;;;;;;26.43;14.57;;;;;;;3.11;86.63;99901.84;5003031;28;20230;-72
2021/11/30 01:52:49;;;;;;;27.80;15.13;;;;;;;3.10;86.78;99890.47;5051080;28;20229;-73
2021/11/30 01:55:16;;;;;;;28.03;13.50;;;;;;;3.12;87.52;99878.09;5048014;28;20715;-72
2021/11/30 01:57:43;;;;;;;24.97;14.33;;;;;;;3.14;86.78;99878.03;5057305;28;20209;-72
2021/11/30 02:00:10;;;;;;;29.70;14.73;;;;;;;3.13;87.38;99874.56;5044377;28;20223;-71
2021/11/30 02:02:37;;;;;;;22.53;13.00;;;;;;;3.13;86.95;99877.19;5051605;28;20217;-72
2021/11/30 02:05:04;;;;;;;22.43;13.57;;;;;;;3.16;87.89;99876.19;5051321;28;20213;-72
2021/11/30 02:07:31;;;;;;;21.67;14.10;;;;;;;3.18;87.28;99876.97;5056686;28;20211;-72
2021/11/30 02:09:58;;;;;;;24.30;13.23;;;;;;;3.22;88.01;99859.28;5066281;28;20328;-71
2021/11/30 02:12:25;;;;;;;18.87;11.37;;;;;;;3.23;87.90;99856.56;5050393;28;20228;-72
2021/11/30 02:14:53;;;;;;;23.47;11.20;;;;;;;3.28;87.48;99853.72;5050337;28;20287;-73
2021/11/30 02:17:19;;;;;;;20.20;12.23;;;;;;;3.28;87.76;99848.47;5055249;28;20209;-72
2021/11/30 02:19:53;;;;;;;20.47;11.23;;;;;;;3.29;87.56;99839.63;5058793;28;20224;-73
2021/11/30 02:22:19;;;;;;;18.43;12.03;;;;;;;3.31;87.48;99848.31;5061315;28;20303;-71
2021/11/30 02:24:46;;;;;;;11.53;7.33;;;;;;;3.32;87.24;99845.63;5057364;28;20212;-73
2021/11/30 02:27:13;;;;;;;6.87;4.57;;;;;;;3.28;86.61;99837.94;5059358;28;20212;-73
2021/11/30 02:29:39;;;;;;;6.30;4.43;;;;;;;3.24;86.78;99831.94;5043326;28;20284;-72
2021/11/30 02:32:07;;;;;;;6.53;5.03;;;;;;;3.22;86.60;99839.09;5055046;28;20235;-73
2021/11/30 02:34:34;;;;;;;6.97;5.40;;;;;;;3.21;86.77;99836.53;5059375;28;20215;-73
2021/11/30 02:37:07;;;;;;;7.33;5.57;;;;;;;3.22;86.28;99833.81;5060251;28;20671;-71
2021/11/30 02:39:35;;;;;;;7.60;5.63;;;;;;;3.21;85.40;99832.13;5045861;28;20218;-72
2021/11/30 02:42:05;;;;;;;7.43;5.67;;;;;;;3.21;85.61;99828.63;5044392;28;20571;-71
2021/11/30 02:44:33;;;;;;;7.70;5.93;;;;;;;3.22;85.26;99820.66;5046093;28;20208;-70
2021/11/30 02:47:04;;;;;;;9.07;5.77;;;;;;;3.23;85.42;99822.34;5045374;28;20202;-72
2021/11/30 02:49:35;;;;;;;8.13;5.50;;;;;;;3.24;85.08;99799.53;5042535;28;20225;-72
2021/11/30 02:52:08;;;;;;;8.03;6.17;;;;;;;3.21;85.94;99784.75;5055171;28;20237;-73
2021/11/30 02:54:36;;;;;;;8.10;6.73;;;;;;;3.24;85.89;99779.31;5050441;28;20201;-73
2021/11/30 02:57:05;;;;;;;9.83;7.30;;;;;;;3.22;86.02;99769.81;5057122;28;20209;-74
2021/11/30 02:59:35;;;;;;;8.70;6.90;;;;;;;3.22;86.31;99765.41;5048697;28;20225;-73
2021/11/30 03:02:04;;;;;;;10.47;7.77;;;;;;;3.23;86.32;99755.72;5053520;28;20201;-74
2021/11/30 03:04:31;;;;;;;9.37;7.57;;;;;;;3.25;86.49;99746.81;5048953;28;20206;-72
2021/11/30 03:06:59;;;;;;;10.27;8.37;;;;;;;3.25;86.44;99741.56;5057143;28;20592;-73
2021/11/30 03:09:27;;;;;;;10.33;8.07;;;;;;;3.28;85.85;99740.56;5051577;28;20221;-72
2021/11/30 03:11:54;;;;;;;10.83;9.30;;;;;;;3.27;85.96;99742.34;5048763;28;20225;-73
2021/11/30 03:14:21;;;;;;;10.03;7.17;;;;;;;3.25;86.53;99725.78;5048028;28;20201;-71
2021/11/30 03:16:48;;;;;;;8.43;7.43;;;;;;;3.22;86.78;99720.69;5046314;28;20202;-72
2021/11/30 03:19:16;;;;;;;7.97;7.10;;;;;;;3.25;86.08;99714.41;5049613;28;20205;-73
2021/11/30 03:21:43;;;;;;;8.30;6.87;;;;;;;3.25;85.91;99709.97;5067955;28;20590;-73
2021/11/30 03:24:10;;;;;;;10.37;7.70;;;;;;;3.27;86.30;99716.03;5065339;28;20228;-73
2021/11/30 03:26:38;;;;;;;9.63;7.83;;;;;;;3.28;86.10;99712.47;5042564;28;20582;-73
2021/11/30 03:29:05;;;;;;;11.20;7.87;;;;;;;3.25;85.97;99702.09;5047648;28;20687;-72
2021/11/30 03:31:46;;;;;;;9.57;8.57;;;;;;;3.24;86.25;99704.78;5054382;28;20216;-72
2021/11/30 03:34:14;;;;;;;10.33;8.53;;;;;;;3.22;86.55;99697.00;5036324;28;20205;-73
2021/11/30 03:36:44;;;;;;;11.37;8.07;;;;;;;3.21;85.76;99697.94;5032785;28;20641;-72
2021/11/30 03:39:13;;;;;;;12.73;8.93;;;;;;;3.22;85.42;99697.00;5048924;28;20209;-72
2021/11/30 03:41:42;;;;;;;6.60;5.87;;;;;;;3.17;85.56;99688.47;5062902;28;20279;-72
2021/11/30 03:44:09;;;;;;;8.10;6.07;;;;;;;3.16;85.19;99686.75;5049120;28;20206;-72
2021/11/30 03:46:37;;;;;;;8.73;5.77;;;;;;;3.08;84.28;99683.63;5051991;28;20224;-72
2021/11/30 03:49:05;;;;;;;5.93;5.33;;;;;;;3.10;85.35;99681.78;5040505;28;20206;-72
2021/11/30 03:51:31;;;;;;;6.30;5.70;;;;;;;3.04;84.35;99672.44;5041449;28;20216;-72
2021/11/30 03:53:58;;;;;;;4.90;4.27;;;;;;;3.06;84.97;99665.28;5067062;28;20228;-72
2021/11/30 03:56:26;;;;;;;7.03;5.43;;;;;;;3.05;84.58;99658.31;5065095;28;20671;-72
2021/11/30 03:58:54;;;;;;;7.37;5.47;;;;;;;3.01;84.81;99650.69;5053190;28;20593;-72
2021/11/30 04:01:20;;;;;;;5.97;4.97;;;;;;;2.95;84.10;99657.06;5057870;28;20228;-73
2021/11/30 04:03:47;;;;;;;7.00;4.57;;;;;;;2.93;84.86;99652.81;5047020;28;20205;-71
2021/11/30 04:06:13;;;;;;;6.77;5.13;;;;;;;2.92;84.05;99641.44;5037848;28;20215;-71
2021/11/30 04:08:41;;;;;;;6.73;5.63;;;;;;;2.88;83.93;99644.28;5047822;28;20209;-71
2021/11/30 04:11:08;;;;;;;6.93;4.80;;;;;;;2.86;84.51;99638.28;5043971;28;20225;-71
2021/11/30 04:13:35;;;;;;;9.00;6.83;;;;;;;2.85;84.31;99631.31;5050492;28;20222;-71
2021/11/30 04:16:04;;;;;;;9.07;6.37;;;;;;;2.84;84.33;99621.72;5058309;28;20741;-71
2021/11/30 04:18:31;;;;;;;7.17;5.63;;;;;;;2.79;85.04;99604.38;5057214;28;20213;-71
2021/11/30 04:20:58;;;;;;;8.17;6.30;;;;;;;2.78;84.36;99596.56;5053284;28;20729;-70
2021/11/30 04:23:26;;;;;;;5.33;4.83;;;;;;;2.73;85.00;99586.25;5057360;28;20205;-71
2021/11/30 04:25:52;;;;;;;6.10;4.73;;;;;;;2.70;85.45;99570.63;5050366;28;20214;-71
2021/11/30 04:28:19;;;;;;;4.57;4.00;;;;;;;2.62;84.90;99557.00;5039965;28;20671;-71
2021/11/30 04:30:45;;;;;;;5.83;4.20;;;;;;;2.53;85.45;99544.31;5054052;28;20758;-72
2021/11/30 04:33:13;;;;;;;4.40;3.77;;;;;;;2.53;85.77;99522.41;5065690;28;20228;-71
2021/11/30 04:35:40;;;;;;;4.00;3.60;;;;;;;2.46;85.34;99521.88;5033577;28;20210;-70
2021/11/30 04:38:07;;;;;;;3.80;3.40;;;;;;;2.44;85.37;99500.09;5045636;28;20217;-71
2021/11/30 04:40:33;;;;;;;3.40;2.73;;;;;;;2.45;85.07;99509.66;5055730;28;20217;-71
2021/11/30 04:43:01;;;;;;;3.33;2.87;;;;;;;2.38;85.30;99488.09;5059200;28;20207;-71
2021/11/30 04:45:31;;;;;;;3.10;2.60;;;;;;;2.37;85.42;99482.91;5047505;28;20206;-71
2021/11/30 04:47:58;;;;;;;4.63;3.20;;;;;;;2.28;85.72;99486.00;5051812;28;20300;-71
2021/11/30 04:50:29;;;;;;;3.07;2.73;;;;;;;2.27;85.70;99477.25;5045264;28;20221;-72
2021/11/30 04:52:58;;;;;;;3.37;2.83;;;;;;;2.15;86.39;99469.94;5051715;28;20725;-71
2021/11/30 04:55:28;;;;;;;3.40;2.87;;;;;;;2.15;85.92;99456.81;5071174;28;20205;-71
2021/11/30 04:57:57;;;;;;;3.10;2.23;;;;;;;2.15;86.48;99442.84;5058881;28;20206;-71
2021/11/30 05:00:24;;;;;;;3.07;2.70;;;;;;;2.11;86.46;99447.41;5049295;28;20225;-71
2021/11/30 05:02:51;;;;;;;2.30;2.10;;;;;;;2.11;86.07;99442.16;5050668;28;20289;-71
2021/11/30 05:05:18;;;;;;;2.70;2.50;;;;;;;2.07;87.08;99437.97;5054797;28;20212;-71
2021/11/30 05:07:47;;;;;;;3.00;1.90;;;;;;;2.01;86.78;99420.72;5049135;28;20206;-70
2021/11/30 05:10:14;;;;;;;2.50;2.30;;;;;;;1.99;86.85;99419.94;5047331;28;20228;-71
2021/11/30 05:12:41;;;;;;;2.83;1.80;;;;;;;2.00;87.26;99410.28;5052679;28;20221;-71
2021/11/30 05:15:08;;;;;;;2.13;1.93;;;;;;;1.94;87.21;99406.19;5046166;28;20214;-70
2021/11/30 05:17:35;;;;;;;1.80;1.60;;;;;;;1.92;87.81;99407.19;5055728;28;20197;-71
2021/11/30 05:20:01;;;;;;;2.13;1.93;;;;;;;1.97;87.49;99389.44;5043751;28;20226;-71
2021/11/30 05:22:28;;;;;;;2.07;1.87;;;;;;;1.98;87.52;99384.09;5036351;28;20212;-70
2021/11/30 05:24:56;;;;;;;2.27;1.83;;;;;;;1.97;87.07;99385.00;5055682;28;20205;-74
2021/11/30 05:27:23;;;;;;;2.10;1.90;;;;;;;1.91;87.78;99387.09;5041873;28;20201;-70
2021/11/30 05:29:49;;;;;;;2.17;1.97;;;;;;;1.92;87.61;99379.16;5051470;28;20233;-69
2021/11/30 05:32:16;;;;;;;2.33;1.87;;;;;;;1.94;87.40;99356.31;5038028;28;20209;-70
2021/11/30 05:34:42;;;;;;;2.40;1.57;;;;;;;1.96;87.30;99369.38;5045592;28;20209;-70
2021/11/30 05:37:09;;;;;;;3.10;1.93;;;;;;;1.95;87.93;99350.13;5048406;28;20206;-70
2021/11/30 05:39:35;;;;;;;2.30;1.80;;;;;;;2.00;87.51;99349.88;5048768;28;20219;-71
2021/11/30 05:42:04;;;;;;;2.13;1.57;;;;;;;1.99;87.84;99348.19;5050087;28;20213;-69
2021/11/30 05:44:30;;;;;;;2.63;2.03;;;;;;;1.94;88.22;99363.34;5044622;28;20194;-71
2021/11/30 05:46:57;;;;;;;1.37;1.27;;;;;;;1.98;88.54;99331.56;5037503;28;20228;-71
2021/11/30 05:49:23;;;;;;;2.00;1.80;;;;;;;2.03;88.45;99355.00;5042578;28;20221;-70
2021/11/30 05:51:50;;;;;;;2.57;1.60;;;;;;;2.00;88.65;99340.22;5043443;28;20225;-71
2021/11/30 05:54:16;;;;;;;3.07;1.50;;;;;;;1.97;88.68;99316.75;5038245;28;20694;-71
2021/11/30 05:56:43;;;;;;;3.10;2.03;;;;;;;2.02;88.28;99322.63;5038135;28;20202;-71
2021/11/30 05:59:13;;;;;;;1.93;1.67;;;;;;;2.07;88.38;99330.28;5038868;28;20199;-71
2021/11/30 06:01:41;;;;;;;1.93;1.40;;;;;;;2.11;88.42;99320.47;5041373;28;20736;-71
2021/11/30 06:04:07;;;;;;;2.13;1.83;;;;;;;2.09;88.81;99303.03;5041301;28;20206;-70
2021/11/30 06:06:36;;;;;;;1.97;1.77;;;;;;;2.12;88.92;99306.44;5034781;28;20694;-70
2021/11/30 06:09:06;;;;;;;2.10;1.80;;;;;;;2.09;89.20;99305.66;5039467;28;20821;-70
2021/11/30 06:11:32;;;;;;;2.27;2.03;;;;;;;2.15;89.14;99314.16;5035880;28;20213;-69
2021/11/30 06:13:59;;;;;;;2.00;1.80;;;;;;;2.16;89.37;99297.44;5035631;28;20729;-71
2021/11/30 06:16:28;;;;;;;3.20;1.90;;;;;;;2.20;89.83;99289.34;5040145;28;20209;-71
2021/11/30 06:18:55;;;;;;;2.73;2.10;;;;;;;2.24;89.77;99290.03;5042794;28;20678;-71
2021/11/30 06:21:21;;;;;;;1.77;1.67;;;;;;;2.23;90.16;99291.81;5047394;28;21456;-71
2021/11/30 06:23:49;;;;;;;1.93;1.50;;;;;;;2.23;90.04;99277.81;5046940;28;20205;-71
2021/11/30 06:26:17;;;;;;;2.00;1.80;;;;;;;2.27;90.51;99284.63;5043100;28;20206;-71
2021/11/30 06:28:44;;;;;;;1.70;1.60;;;;;;;2.31;89.76;99304.56;5039775;28;20202;-70
2021/11/30 06:31:11;;;;;;;1.93;1.30;;;;;;;2.33;90.12;99286.97;5037605;28;20233;-71
2021/11/30 06:33:39;;;;;;;3.17;1.97;;;;;;;2.37;89.73;99272.72;5040610;28;20269;-76
2021/11/30 06:36:06;;;;;;;2.10;1.63;;;;;;;2.40;89.75;99262.91;5041134;28;20205;-75
2021/11/30 06:38:32;;;;;;;1.47;1.37;;;;;;;2.44;89.76;99268.84;5044210;28;20674;-75
2021/11/30 06:40:59;;;;;;;1.50;1.33;;;;;;;2.42;90.23;99281.22;5049536;28;20313;-75
2021/11/30 06:43:25;;;;;;;2.33;1.93;;;;;;;2.47;89.75;99279.19;5047727;28;20213;-75
2021/11/30 06:45:52;;;;;;;2.10;1.90;;;;;;;2.50;90.41;99280.81;5046127;28;20684;-75
2021/11/30 06:48:20;;;;;;;2.20;2.00;;;;;;;2.52;89.96;99278.94;5046655;28;20326;-74
2021/11/30 06:50:48;;;;;;;2.50;2.13;;;;;;;2.56;90.14;99267.34;5043735;28;20233;-75
2021/11/30 06:53:15;;;;;;;1.83;1.73;;;;;;;2.60;90.12;99261.00;5034349;28;20312;-75
2021/11/30 06:55:41;;;;;;;1.83;1.73;;;;;;;2.60;90.63;99245.22;5035695;28;20210;-78
2021/11/30 06:58:08;;;;;;;2.83;2.20;;;;;;;2.60;90.99;99251.34;5033625;28;20199;-76
2021/11/30 07:00:35;;;;;;;2.00;1.90;;;;;;;2.65;90.20;99257.22;5040338;28;20226;-75
2021/11/30 07:03:01;;;;;;;1.40;1.23;;;;;;;2.69;90.25;99253.47;5036949;28;20224;-75
2021/11/30 07:05:31;;;;;;;1.90;1.80;;;;;;;2.74;90.04;99259.34;5042814;28;20317;-75
2021/11/30 07:08:14;;;;;;;2.03;1.70;;;;;;;2.75;91.01;99247.88;5043088;28;20663;-75
2021/11/30 07:10:46;;;;;;;2.13;1.87;;;;;;;2.80;90.07;99252.91;5042864;28;20220;-75
2021/11/30 07:13:18;;;;;;;2.40;1.83;;;;;;;2.81;90.79;99259.00;5032684;28;20222;-75
2021/11/30 07:15:47;;;;;;;1.40;1.30;;;;;;;2.85;90.68;99261.41;5038666;28;20583;-75
2021/11/30 07:18:15;;;;;;;1.40;1.30;;;;;;;2.89;91.05;99267.31;5041441;28;20334;-76
2021/11/30 07:20:43;;;;;;;1.93;1.40;;;;;;;2.88;91.29;99249.84;5038750;28;20325;-76
2021/11/30 07:23:12;;;;;;;1.37;1.27;;;;;;;2.92;90.64;99252.22;5033929;28;20689;-75
2021/11/30 07:25:38;;;;;;;1.43;1.33;;;;;;;2.97;91.15;99252.00;5042421;28;20201;-75
2021/11/30 07:28:05;;;;;;;1.13;1.07;;;;;;;3.00;90.39;99259.72;5034743;28;20204;-75
2021/11/30 07:30:32;;;;;;;1.50;1.20;;;;;;;3.04;90.85;99261.25;5031896;28;20321;-80
2021/11/30 07:33:00;;;;;;;1.13;1.13;;;;;;;3.04;91.37;99250.75;5033858;28;20573;-77
2021/11/30 07:35:26;;;;;;;1.10;1.00;;;;;;;3.09;91.29;99254.78;5037927;28;20217;-74
2021/11/30 07:37:53;;;;;;;1.20;1.10;;;;;;;3.14;90.82;99251.91;5044009;28;20210;-75
2021/11/30 07:40:22;;;;;;;1.30;1.10;;;;;;;3.18;90.91;99249.97;5037383;28;20324;-76
2021/11/30 07:42:48;;;;;;;1.23;1.13;;;;;;;3.20;91.10;99248.09;5031674;28;20208;-75
2021/11/30 07:45:17;;;;;;;1.37;1.23;;;;;;;3.24;91.47;99254.88;5031327;28;20202;-75
2021/11/30 07:47:44;;;;;;;1.10;1.00;;;;;;;3.25;91.45;99239.00;5037258;28;20256;-74
2021/11/30 07:50:12;;;;;;;1.07;1.00;;;;;;;3.29;91.28;99235.28;5038180;28;20234;-76
2021/11/30 07:52:41;;;;;;;1.03;0.97;;;;;;;3.33;92.01;99236.81;5035638;28;20206;-76
2021/11/30 07:55:09;;;;;;;1.10;1.00;;;;;;;3.38;91.87;99231.28;5037300;28;20603;-75
2021/11/30 07:57:37;;;;;;;1.10;0.80;;;;;;;3.43;92.11;99237.97;5035880;28;20202;-75
2021/11/30 08:00:05;;;;;;;1.90;1.53;;;;;;;3.47;92.46;99236.88;5036772;28;20225;-75
2021/11/30 08:02:32;;;;;;;1.03;0.97;;;;;;;3.49;92.61;99232.38;5036429;28;20217;-75
2021/11/30 08:04:58;;;;;;;2.30;1.57;;;;;;;3.55;92.82;99217.16;5041103;28;20198;-75
2021/11/30 08:07:25;;;;;;;1.50;1.27;;;;;;;3.57;92.41;99217.94;5036723;28;20213;-75
2021/11/30 08:09:51;;;;;;;1.43;1.13;;;;;;;3.64;92.93;99219.25;5037041;28;20225;-78
2021/11/30 08:12:18;;;;;;;1.27;1.10;;;;;;;3.69;92.84;99217.22;5041615;28;20586;-73
2021/11/30 08:14:46;;;;;;;3.27;1.03;;;;;;;3.72;92.14;99201.25;5040958;28;20221;-76
2021/11/30 08:17:14;;;;;;;7.80;4.30;;;;;;;3.76;93.31;99218.56;5038113;28;20203;-76
2021/11/30 08:19:41;;;;;;;1.73;1.63;;;;;;;3.78;92.52;99206.13;5041020;28;20645;-76
2021/11/30 08:22:08;;;;;;;1.73;1.47;;;;;;;3.81;92.88;99217.34;5038004;28;20206;-75
2021/11/30 08:24:35;;;;;;;2.37;1.50;;;;;;;3.84;93.10;99217.16;5043017;28;20198;-74
2021/11/30 08:27:01;;;;;;;1.50;1.40;;;;;;;3.91;92.80;99214.19;5040447;28;20197;-75
2021/11/30 08:29:28;;;;;;;3.50;2.73;;;;;;;3.96;93.08;99210.31;5040317;28;20230;-76
2021/11/30 08:31:55;;;;;;;3.30;3.00;;;;;;;3.98;92.96;99208.44;5046533;28;20580;-75
2021/11/30 08:34:22;;;;;;;2.77;2.57;;;;;;;4.03;93.21;99222.19;5041315;28;20241;-76
2021/11/30 08:36:48;;;;;;;3.93;3.53;;;;;;;4.09;92.96;99218.34;5043258;28;20199;-75
2021/11/30 08:39:15;;;;;;;4.87;3.63;;;;;;;4.10;92.96;99207.72;5036777;28;20584;-75
2021/11/30 08:41:42;;;;;;;4.83;4.33;;;;;;;4.14;92.96;99214.50;5041626;28;20210;-79
2021/11/30 08:44:08;;;;;;;5.87;5.37;;;;;;;4.15;93.30;99208.28;5036871;28;20202;-76
2021/11/30 08:46:35;;;;;;;7.17;6.43;;;;;;;4.20;93.35;99197.47;5038825;28;20668;-76
2021/11/30 08:49:03;;;;;;;6.77;6.07;;;;;;;4.24;92.95;99193.72;5042024;28;20213;-75
2021/11/30 08:51:29;;;;;;;6.33;4.93;;;;;;;4.28;93.00;99183.84;5043035;28;20213;-78
2021/11/30 08:53:56;;;;;;;6.47;5.50;;;;;;;4.32;92.82;99190.59;5036434;28;20222;-75
2021/11/30 08:56:22;;;;;;;5.03;4.53;;;;;;;4.35;93.00;99187.78;5046181;28;20205;-76
2021/11/30 08:58:51;;;;;;;5.80;3.90;;;;;;;4.39;92.94;99186.66;5040726;28;20205;-76
2021/11/30 09:01:17;;;;;;;4.77;4.10;;;;;;;4.44;92.79;99198.63;5043018;28;20221;-76
2021/11/30 09:03:44;;;;;;;5.70;5.20;;;;;;;4.45;93.26;99195.06;5045880;28;20584;-78
2021/11/30 09:06:12;;;;;;;6.83;5.77;;;;;;;4.49;93.08;99186.00;5047570;28;20580;-75
2021/11/30 09:08:38;;;;;;;5.73;5.13;;;;;;;4.53;92.97;99179.59;5039745;28;20207;-76
2021/11/30 09:11:05;;;;;;;5.33;4.83;;;;;;;4.56;93.02;99181.19;5049355;28;20530;-75
2021/11/30 09:13:31;;;;;;;5.83;4.90;;;;;;;4.59;93.36;99180.16;5048426;28;20209;-76
2021/11/30 09:15:58;;;;;;;5.67;5.13;;;;;;;4.62;93.33;99174.69;5041007;28;20210;-75
2021/11/30 09:18:29;;;;;;;5.37;4.80;;;;;;;4.64;93.40;99178.94;5044064;28;20666;-75
2021/11/30 09:20:56;;;;;;;6.40;5.60;;;;;;;4.67;93.78;99181.38;5036688;28;20222;-76
2021/11/30 09:23:24;;;;;;;5.93;4.47;;;;;;;4.73;93.48;99167.81;5043840;28;20206;-75
2021/11/30 09:25:53;;;;;;;5.37;4.60;;;;;;;4.76;93.89;99167.63;5045180;28;20582;-75
2021/11/30 09:28:20;;;;;;;6.77;5.50;;;;;;;4.79;93.81;99179.75;5041772;28;20209;-75
2021/11/30 09:30:47;;;;;;;6.03;4.40;;;;;;;4.81;94.06;99178.72;5059691;22;20226;-74
2021/11/30 09:33:14;;;;;;;5.40;4.90;;;;;;;4.84;94.71;99175.03;5023535;28;20202;-73
2021/11/30 09:35:40;;;;;;;6.97;4.63;;;;;;;4.86;94.55;99181.91;5021504;28;20426;-73
2021/11/30 09:38:08;;;;;;;4.57;4.13;;;;;;;4.92;94.89;99174.56;5020401;28;20220;-74
2021/11/30 09:40:37;;;;;;;4.10;3.70;;;;;;;4.95;94.79;99169.09;5025794;28;20234;-74
2021/11/30 09:43:06;;;;;;;6.33;5.13;;;;;;;5.01;94.72;99176.63;5022229;28;20206;-74
2021/11/30 09:45:34;;;;;;;4.70;4.17;;;;;;;5.05;94.33;99180.72;5026555;28;20253;-74
2021/11/30 09:48:01;;;;;;;5.57;5.07;;;;;;;5.08;94.70;99184.03;5024604;28;20213;-74
2021/11/30 09:50:27;;;;;;;4.63;3.70;;;;;;;5.09;94.79;99179.59;5022092;28;20231;-73
2021/11/30 09:52:56;;;;;;;3.20;2.90;;;;;;;5.14;95.00;99196.00;5026550;28;20217;-74
2021/11/30 09:55:24;;;;;;;3.67;2.57;;;;;;;5.16;95.09;99186.19;5022900;28;20265;-73
2021/11/30 09:57:53;;;;;;;3.70;2.80;;;;;;;5.19;95.16;99188.63;5019859;28;20286;-74
2021/11/30 10:00:21;;;;;;;2.30;2.10;;;;;;;5.23;95.01;99184.81;5023385;28;20226;-74
2021/11/30 10:02:48;;;;;;;2.60;2.37;;;;;;;5.25;94.88;99188.22;5021173;28;20222;-74
2021/11/30 10:05:15;;;;;;;2.90;2.53;;;;;;;5.29;94.99;99188.88;5021275;28;20214;-74
2021/11/30 10:07:43;;;;;;;8.73;7.83;;;;;;;5.32;95.06;99178.13;5016158;28;20213;-74
2021/11/30 10:10:13;;;;;;;9.13;6.00;;;;;;;5.34;95.26;99165.66;5017604;28;20605;-73
2021/11/30 10:12:40;;;;;;;6.20;3.60;;;;;;;5.35;95.23;99173.50;5019434;28;20206;-73
2021/11/30 10:15:11;;;;;;;6.37;3.77;;;;;;;5.37;95.36;99168.97;5020010;28;20317;-74
2021/11/30 10:17:38;;;;;;;6.40;4.03;;;;;;;5.41;95.42;99174.84;5009739;28;20713;-73
2021/11/30 10:20:10;;;;;;;4.87;3.77;;;;;;;5.42;95.73;99169.47;5018114;28;20223;-73
2021/11/30 10:22:40;;;;;;;6.67;5.63;;;;;;;5.46;95.79;99186.81;5010835;28;20549;-73
2021/11/30 10:25:17;;;;;;;6.87;3.70;;;;;;;5.47;95.88;99175.31;5017023;28;20675;-74
2021/11/30 10:27:47;;;;;;;6.17;4.73;;;;;;;5.50;96.19;99174.28;5023537;28;20642;-74
2021/11/30 10:30:17;;;;;;;2.37;1.63;;;;;;;5.54;95.75;99176.63;5023205;28;20233;-73
2021/11/30 10:32:46;;;;;;;3.70;1.90;;;;;;;5.57;95.99;99186.94;5024974;28;20297;-74
2021/11/30 10:35:14;;;;;;;2.57;1.80;;;;;;;5.62;95.78;99185.81;5024697;28;20226;-74
2021/11/30 10:37:41;;;;;;;3.90;2.00;;;;;;;5.64;95.90;99184.75;5016418;28;20202;-74
2021/11/30 10:40:10;;;;;;;14.67;11.17;;;;;;;5.65;96.12;99173.25;5017841;28;20241;-73
2021/11/30 10:42:45;;;;;;;9.07;6.67;;;;;;;5.67;96.24;99166.06;5013911;28;20203;-73
2021/11/30 10:45:11;;;;;;;4.93;4.00;;;;;;;5.70;96.31;99173.78;5022781;28;20201;-74
2021/11/30 10:47:41;;;;;;;6.00;4.80;;;;;;;5.73;96.06;99178.03;5024211;28;20199;-74
2021/11/30 10:50:11;;;;;;;4.60;3.73;;;;;;;5.76;96.20;99173.38;5017076;28;20700;-74
2021/11/30 10:52:43;;;;;;;4.93;4.23;;;;;;;5.78;96.40;99165.34;5016521;28;20203;-74
2021/11/30 10:55:12;;;;;;;4.30;3.90;;;;;;;5.80;96.72;99174.88;5018058;28;20233;-74
2021/11/30 10:57:39;;;;;;;1.90;1.50;;;;;;;5.83;96.73;99187.88;5016518;28;20203;-73
2021/11/30 11:00:19;;;;;;;1.50;1.20;;;;;;;5.88;96.57;99184.94;5015163;28;20242;-73
2021/11/30 11:02:52;;;;;;;2.77;1.00;;;;;;;5.89;96.52;99184.84;5012803;28;20460;-73
2021/11/30 11:05:20;;;;;;;3.13;1.30;;;;;;;5.92;96.91;99176.69;5012151;28;20203;-74
2021/11/30 11:08:07;;;;;;;2.00;1.17;;;;;;;5.95;96.90;99178.28;5010005;28;21204;-74
2021/11/30 11:10:35;;;;;;;2.57;0.87;;;;;;;5.97;96.98;99179.03;5014741;28;20221;-72
2021/11/30 11:13:22;;;;;;;3.23;0.70;;;;;;;6.00;97.02;99175.34;5024016;28;20201;-74
2021/11/30 11:15:50;;;;;;;4.67;1.37;;;;;;;6.03;97.03;99170.69;5021956;28;20233;-74
2021/11/30 11:18:27;;;;;;;2.27;0.70;;;;;;;6.05;96.91;99179.38;5039054;28;20212;-73
2021/11/30 11:21:10;;;;;;;2.97;0.93;;;;;;;6.10;97.23;99181.69;5050278;28;20244;-74
2021/11/30 11:23:41;;;;;;;4.97;1.20;;;;;;;6.15;97.26;99183.06;5032471;28;20209;-74
2021/11/30 11:26:24;;;;;;;4.67;1.50;;;;;;;6.18;97.36;99187.31;5019257;28;20226;-74
2021/11/30 11:28:52;;;;;;;6.40;1.07;;;;;;;6.19;97.30;99179.28;5021203;28;20205;-73
2021/11/30 11:31:21;;;;;;;5.20;1.43;;;;;;;6.24;96.97;99173.69;5013025;28;20230;-73
2021/11/30 11:33:49;;;;;;;10.50;2.07;;;;;;;6.26;97.08;99172.63;5015368;28;20224;-75
2021/11/30 11:36:16;;;;;;;4.40;1.40;;;;;;;6.32;96.80;99175.78;5011894;28;20227;-74
2021/11/30 11:38:43;;;;;;;4.20;1.37;;;;;;;6.36;97.14;99164.88;5025314;28;20206;-73
2021/11/30 11:41:10;;;;;;;5.77;1.20;;;;;;;6.37;97.20;99174.50;5024126;28;20222;-73
2021/11/30 11:43:38;;;;;;;4.80;1.47;;;;;;;6.41;96.45;99175.16;5017675;28;20209;-73